createdAt,value
2023-03-17T00:00:44.918Z,99.86
2023-03-17T00:01:53.229Z,99.34
2023-03-17T00:02:57.514Z,99.45
2023-03-17T00:04:00.755Z,99.44
2023-03-17T00:05:15.107Z,99.37
2023-03-17T00:06:27.414Z,99.61
2023-03-17T00:07:30.703Z,99.14
2023-03-17T00:08:37.491Z,100.00
2023-03-17T00:09:40.268Z,99.55
2023-03-17T00:10:43.058Z,99.35
2023-03-17T00:11:46.507Z,99.51
2023-03-17T00:12:52.896Z,99.19
2023-03-17T00:13:57.229Z,98.84
2023-03-17T00:14:59.527Z,99.32
2023-03-17T00:16:04.630Z,99.04
2023-03-17T00:17:10.061Z,99.27
2023-03-17T00:18:15.929Z,99.29
2023-03-17T00:19:27.605Z,99.01
2023-03-17T00:20:32.550Z,99.50
2023-03-17T00:21:35.147Z,99.08
2023-03-17T00:22:37.937Z,98.76
2023-03-17T00:23:42.749Z,99.10
2023-03-17T00:24:45.120Z,98.42
2023-03-17T00:25:49.367Z,98.46
2023-03-17T00:26:51.769Z,98.43
2023-03-17T00:27:55.895Z,98.47
2023-03-17T00:28:58.347Z,98.81
2023-03-17T00:30:00.681Z,98.96
2023-03-17T00:31:06.468Z,98.84
2023-03-17T00:32:12.452Z,98.96
2023-03-17T00:33:16.439Z,98.98
2023-03-17T00:34:19.377Z,98.89
2023-03-17T00:35:26.146Z,98.98
2023-03-17T00:36:31.693Z,99.12
2023-03-17T00:37:33.886Z,98.90
2023-03-17T00:38:36.950Z,98.71
2023-03-17T00:39:39.926Z,98.67
2023-03-17T00:42:51.713Z,98.36
2023-03-17T00:43:54.931Z,98.12
2023-03-17T00:44:57.867Z,97.97
2023-03-17T00:46:00.926Z,98.04
2023-03-17T00:47:03.765Z,98.03
2023-03-17T00:48:16.003Z,97.86
2023-03-17T00:49:21.722Z,97.56
2023-03-17T00:50:27.148Z,97.38
2023-03-17T00:51:29.941Z,97.13
2023-03-17T00:52:32.800Z,96.73
2023-03-17T00:53:35.911Z,96.69
2023-03-17T00:54:38.717Z,96.45
2023-03-17T00:55:44.088Z,96.23
2023-03-17T00:56:48.233Z,96.50
2023-03-17T00:57:51.275Z,96.62
2023-03-17T00:58:53.870Z,96.03
2023-03-17T00:59:56.308Z,96.29
2023-03-17T01:01:00.272Z,95.97
2023-03-17T01:02:02.771Z,96.02
2023-03-17T01:03:05.256Z,96.03
2023-03-17T01:04:10.282Z,96.08
2023-03-17T01:05:14.012Z,95.95
2023-03-17T01:06:17.534Z,95.61
2023-03-17T01:07:20.506Z,95.12
2023-03-17T01:08:25.060Z,94.90
2023-03-17T01:09:28.310Z,94.85
2023-03-17T01:10:32.842Z,94.57
2023-03-17T01:11:35.984Z,94.77
2023-03-17T01:12:38.392Z,94.60
2023-03-17T01:13:41.061Z,94.28
2023-03-17T01:14:43.201Z,94.28
2023-03-17T01:15:50.015Z,94.41
2023-03-17T01:16:55.104Z,94.69
2023-03-17T01:17:59.747Z,94.79
2023-03-17T01:19:02.462Z,94.72
2023-03-17T01:20:07.125Z,94.50
2023-03-17T01:21:09.886Z,94.56
2023-03-17T01:22:13.573Z,94.50
2023-03-17T01:23:17.048Z,94.29
2023-03-17T01:24:19.714Z,94.33
2023-03-17T01:25:22.531Z,94.03
2023-03-17T01:26:26.084Z,93.74
2023-03-17T01:27:29.226Z,93.74
2023-03-17T01:28:32.060Z,93.92
2023-03-17T01:29:34.878Z,94.25
2023-03-17T01:30:39.246Z,94.08
2023-03-17T01:31:41.979Z,93.64
2023-03-17T01:32:46.737Z,93.26
2023-03-17T01:33:50.309Z,93.33
2023-03-17T01:34:52.902Z,93.36
2023-03-17T01:35:55.765Z,93.35
2023-03-17T01:37:01.476Z,93.21
2023-03-17T01:38:05.588Z,92.95
2023-03-17T01:39:08.125Z,93.00
2023-03-17T01:40:15.421Z,92.49
2023-03-17T01:41:20.115Z,92.63
2023-03-17T01:42:22.626Z,92.74
2023-03-17T01:43:28.642Z,92.95
2023-03-17T01:44:31.464Z,93.57
2023-03-17T01:46:11.752Z,93.79
2023-03-17T01:47:16.405Z,93.85
2023-03-17T01:48:19.265Z,93.94
2023-03-17T01:49:29.939Z,93.92
2023-03-17T01:50:33.957Z,93.66
2023-03-17T01:51:45.975Z,93.74
2023-03-17T01:52:49.211Z,93.70
2023-03-17T01:53:54.649Z,93.45
2023-03-17T01:55:03.174Z,93.22
2023-03-17T01:56:07.876Z,93.05
2023-03-17T01:57:16.754Z,92.94
2023-03-17T01:58:22.477Z,92.82
2023-03-17T01:59:28.907Z,92.81
2023-03-17T02:00:33.525Z,92.96
2023-03-17T02:01:42.161Z,93.38
2023-03-17T02:02:50.939Z,92.97
2023-03-17T02:03:55.448Z,93.06
2023-03-17T02:04:58.419Z,93.30
2023-03-17T02:06:02.326Z,93.30
2023-03-17T02:07:05.119Z,93.13
2023-03-17T02:08:13.880Z,93.20
2023-03-17T02:09:16.780Z,93.18
2023-03-17T02:10:22.702Z,93.29
2023-03-17T02:11:25.824Z,93.46
2023-03-17T02:12:30.953Z,93.49
2023-03-17T02:13:34.414Z,93.25
2023-03-17T02:14:36.995Z,93.03
2023-03-17T02:15:42.054Z,92.99
2023-03-17T02:16:45.588Z,93.39
2023-03-17T02:17:50.715Z,93.12
2023-03-17T02:18:53.145Z,93.12
2023-03-17T02:19:56.225Z,92.92
2023-03-17T02:21:30.732Z,92.82
2023-03-17T02:22:33.235Z,92.93
2023-03-17T02:23:36.093Z,93.07
2023-03-17T02:24:45.422Z,92.94
2023-03-17T02:25:48.709Z,92.77
2023-03-17T02:26:54.915Z,92.76
2023-03-17T02:28:01.630Z,92.76
2023-03-17T02:29:05.464Z,93.23
2023-03-17T02:30:11.604Z,93.36
2023-03-17T02:31:15.973Z,93.09
2023-03-17T02:32:19.929Z,92.93
2023-03-17T02:33:22.969Z,93.20
2023-03-17T02:34:27.879Z,93.17
2023-03-17T02:35:30.917Z,93.00
2023-03-17T02:36:34.614Z,92.53
2023-03-17T02:37:37.981Z,92.53
2023-03-17T02:38:40.664Z,92.42
2023-03-17T02:39:43.462Z,92.53
2023-03-17T02:40:45.990Z,92.21
2023-03-17T02:41:48.326Z,91.97
2023-03-17T02:42:50.787Z,91.94
2023-03-17T02:43:53.279Z,91.99
2023-03-17T02:44:56.159Z,92.11
2023-03-17T02:45:58.705Z,92.05
2023-03-17T02:47:02.611Z,91.97
2023-03-17T02:48:05.541Z,92.07
2023-03-17T02:49:08.114Z,91.87
2023-03-17T02:50:14.113Z,91.81
2023-03-17T02:51:16.531Z,91.51
2023-03-17T02:52:19.092Z,91.72
2023-03-17T02:53:21.215Z,91.84
2023-03-17T02:54:23.524Z,91.99
2023-03-17T02:55:26.573Z,91.94
2023-03-17T02:56:29.474Z,91.84
2023-03-17T02:57:31.723Z,91.99
2023-03-17T02:58:34.062Z,92.16
2023-03-17T02:59:37.331Z,92.49
2023-03-17T03:00:40.108Z,92.47
2023-03-17T03:01:43.336Z,92.32
2023-03-17T03:02:47.545Z,92.23
2023-03-17T03:03:50.149Z,92.30
2023-03-17T03:04:53.107Z,92.28
2023-03-17T03:05:55.855Z,92.17
2023-03-17T03:06:58.267Z,92.15
2023-03-17T03:08:00.493Z,92.06
2023-03-17T03:09:03.155Z,91.91
2023-03-17T03:10:06.694Z,91.82
2023-03-17T03:11:09.498Z,91.91
2023-03-17T03:12:13.365Z,92.12
2023-03-17T03:13:17.341Z,91.98
2023-03-17T03:14:19.700Z,92.02
2023-03-17T03:15:22.973Z,92.04
2023-03-17T03:16:25.704Z,91.87
2023-03-17T03:17:28.019Z,92.14
2023-03-17T03:18:30.290Z,92.36
2023-03-17T03:19:32.433Z,92.42
2023-03-17T03:20:35.675Z,92.65
2023-03-17T03:21:37.977Z,92.87
2023-03-17T03:22:40.493Z,92.84
2023-03-17T03:23:42.827Z,92.94
2023-03-17T03:24:45.216Z,93.00
2023-03-17T03:25:47.918Z,93.32
2023-03-17T03:26:51.116Z,93.70
2023-03-17T03:27:53.698Z,93.46
2023-03-17T03:28:57.865Z,93.47
2023-03-17T03:30:00.780Z,93.91
2023-03-17T03:31:03.332Z,93.90
2023-03-17T03:32:06.719Z,94.07
2023-03-17T03:33:11.130Z,94.37
2023-03-17T03:34:14.254Z,94.58
2023-03-17T03:35:16.627Z,94.46
2023-03-17T03:36:19.886Z,94.65
2023-03-17T03:37:23.444Z,94.64
2023-03-17T03:38:26.564Z,95.21
2023-03-17T03:39:28.967Z,95.21
2023-03-17T03:40:32.039Z,95.36
2023-03-17T03:41:35.418Z,95.92
2023-03-17T03:42:37.828Z,96.05
2023-03-17T03:43:40.578Z,96.32
2023-03-17T03:44:44.078Z,96.05
2023-03-17T03:45:46.485Z,96.68
2023-03-17T03:46:49.005Z,96.29
2023-03-17T03:47:51.387Z,96.75
2023-03-17T03:48:54.648Z,96.61
2023-03-17T03:49:56.930Z,96.67
2023-03-17T03:51:01.384Z,97.01
2023-03-17T03:52:05.135Z,97.01
2023-03-17T03:53:07.570Z,97.11
2023-03-17T03:54:09.834Z,97.61
2023-03-17T03:55:12.200Z,97.94
2023-03-17T03:56:15.436Z,97.46
2023-03-17T03:57:18.042Z,97.04
2023-03-17T03:58:20.710Z,97.39
2023-03-17T03:59:23.346Z,97.29
2023-03-17T04:00:25.936Z,97.30
2023-03-17T04:01:28.694Z,97.09
2023-03-17T04:02:31.376Z,97.31
2023-03-17T04:03:34.195Z,96.94
2023-03-17T04:04:37.171Z,96.93
2023-03-17T04:05:39.736Z,96.83
2023-03-17T04:06:42.232Z,96.92
2023-03-17T04:07:48.054Z,96.76
2023-03-17T04:08:50.474Z,96.79
2023-03-17T04:09:53.223Z,97.09
2023-03-17T04:10:56.041Z,97.04
2023-03-17T04:11:58.288Z,97.08
2023-03-17T04:13:01.376Z,96.71
2023-03-17T04:14:05.773Z,97.02
2023-03-17T04:15:10.712Z,96.71
2023-03-17T04:16:13.388Z,96.85
2023-03-17T04:17:16.310Z,96.61
2023-03-17T04:18:18.953Z,96.37
2023-03-17T04:19:21.466Z,96.32
2023-03-17T04:20:24.153Z,96.48
2023-03-17T04:21:27.296Z,96.70
2023-03-17T04:22:30.188Z,96.48
2023-03-17T04:23:33.488Z,96.39
2023-03-17T04:24:35.756Z,96.39
2023-03-17T04:25:39.541Z,96.16
2023-03-17T04:26:41.958Z,95.83
2023-03-17T04:27:44.203Z,95.95
2023-03-17T04:28:47.029Z,95.83
2023-03-17T04:29:49.254Z,95.80
2023-03-17T04:30:51.693Z,95.80
2023-03-17T04:31:54.496Z,96.03
2023-03-17T04:32:56.965Z,96.15
2023-03-17T04:33:59.262Z,96.37
2023-03-17T04:35:01.762Z,96.30
2023-03-17T04:36:06.360Z,95.89
2023-03-17T04:37:10.364Z,95.80
2023-03-17T04:38:13.082Z,95.55
2023-03-17T04:39:16.334Z,95.54
2023-03-17T04:40:19.657Z,95.56
2023-03-17T04:41:22.034Z,95.44
2023-03-17T04:42:24.763Z,95.79
2023-03-17T04:43:27.298Z,95.71
2023-03-17T04:44:29.717Z,95.72
2023-03-17T04:45:32.052Z,95.60
2023-03-17T04:46:35.521Z,95.61
2023-03-17T04:47:39.253Z,95.45
2023-03-17T04:48:42.815Z,95.03
2023-03-17T04:49:45.563Z,94.94
2023-03-17T04:50:47.988Z,94.87
2023-03-17T04:51:50.964Z,94.82
2023-03-17T04:52:55.445Z,94.77
2023-03-17T04:53:57.824Z,94.85
2023-03-17T04:55:00.440Z,94.92
2023-03-17T04:56:02.773Z,94.91
2023-03-17T04:57:05.407Z,94.61
2023-03-17T04:58:08.353Z,94.55
2023-03-17T04:59:11.555Z,94.33
2023-03-17T05:00:15.611Z,94.10
2023-03-17T05:01:19.175Z,94.17
2023-03-17T05:02:21.693Z,94.44
2023-03-17T05:03:27.636Z,94.36
2023-03-17T05:04:31.897Z,94.58
2023-03-17T05:05:35.735Z,94.57
2023-03-17T05:06:38.233Z,94.60
2023-03-17T05:07:41.203Z,94.14
2023-03-17T05:08:46.777Z,94.39
2023-03-17T05:09:49.170Z,94.15
2023-03-17T05:10:52.158Z,93.85
2023-03-17T05:11:55.483Z,93.85
2023-03-17T05:12:58.355Z,94.06
2023-03-17T05:14:00.862Z,94.34
2023-03-17T05:15:05.953Z,94.66
2023-03-17T05:16:09.231Z,94.72
2023-03-17T05:17:11.827Z,94.96
2023-03-17T05:18:15.759Z,94.84
2023-03-17T05:19:19.432Z,94.91
2023-03-17T05:20:22.594Z,94.77
2023-03-17T05:21:24.893Z,95.02
2023-03-17T05:22:27.802Z,94.52
2023-03-17T05:23:30.220Z,94.63
2023-03-17T05:24:33.247Z,94.38
2023-03-17T05:25:36.267Z,93.96
2023-03-17T05:26:39.547Z,94.26
2023-03-17T05:27:43.854Z,93.79
2023-03-17T05:28:47.873Z,93.61
2023-03-17T05:29:50.366Z,93.61
2023-03-17T05:30:53.652Z,93.68
2023-03-17T05:31:56.221Z,94.19
2023-03-17T05:32:58.884Z,93.99
2023-03-17T05:34:02.839Z,94.01
2023-03-17T05:35:06.172Z,94.36
2023-03-17T05:36:10.342Z,94.60
2023-03-17T05:37:13.541Z,95.18
2023-03-17T05:38:17.836Z,95.05
2023-03-17T05:39:20.526Z,94.88
2023-03-17T05:40:26.617Z,95.58
2023-03-17T05:41:29.205Z,95.58
2023-03-17T05:42:31.368Z,95.11
2023-03-17T05:43:33.973Z,94.81
2023-03-17T05:44:36.233Z,94.91
2023-03-17T05:45:39.058Z,95.13
2023-03-17T05:46:42.209Z,95.44
2023-03-17T05:47:45.471Z,95.47
2023-03-17T05:48:49.613Z,95.44
2023-03-17T05:49:52.330Z,94.92
2023-03-17T05:50:55.168Z,94.75
2023-03-17T05:51:58.298Z,94.84
2023-03-17T05:53:05.279Z,94.99
2023-03-17T05:54:08.159Z,95.21
2023-03-17T05:55:11.128Z,95.01
2023-03-17T05:56:13.794Z,95.05
2023-03-17T05:57:16.470Z,94.86
2023-03-17T05:58:18.580Z,94.60
2023-03-17T05:59:21.692Z,94.66
2023-03-17T06:00:24.794Z,94.26
2023-03-17T06:01:27.868Z,94.62
2023-03-17T06:02:30.727Z,94.72
2023-03-17T06:03:33.300Z,94.63
2023-03-17T06:04:35.635Z,94.05
2023-03-17T06:05:37.727Z,94.05
2023-03-17T06:06:40.700Z,94.03
2023-03-17T06:07:52.928Z,94.00
2023-03-17T06:08:47.416Z,94.39
2023-03-17T06:09:50.690Z,93.95
2023-03-17T06:10:53.048Z,93.83
2023-03-17T06:11:56.424Z,93.68
2023-03-17T06:13:00.410Z,94.02
2023-03-17T06:14:03.914Z,93.86
2023-03-17T06:15:10.245Z,93.70
2023-03-17T06:16:13.688Z,93.55
2023-03-17T06:17:16.132Z,93.48
2023-03-17T06:18:19.796Z,93.43
2023-03-17T06:19:22.077Z,93.50
2023-03-17T06:20:24.505Z,93.27
2023-03-17T06:21:26.972Z,93.09
2023-03-17T06:22:29.862Z,93.14
2023-03-17T06:23:32.257Z,93.29
2023-03-17T06:24:34.892Z,92.88
2023-03-17T06:25:37.177Z,92.74
2023-03-17T06:26:39.910Z,93.00
2023-03-17T06:27:43.026Z,92.87
2023-03-17T06:28:46.122Z,92.93
2023-03-17T06:29:48.876Z,92.84
2023-03-17T06:30:51.557Z,92.71
2023-03-17T06:31:55.117Z,93.28
2023-03-17T06:32:57.502Z,92.75
2023-03-17T06:33:59.829Z,93.20
2023-03-17T06:35:05.637Z,92.96
2023-03-17T06:36:08.778Z,92.94
2023-03-17T06:37:11.673Z,92.95
2023-03-17T06:38:14.330Z,92.89
2023-03-17T06:39:17.675Z,92.97
2023-03-17T06:40:20.501Z,92.79
2023-03-17T06:41:22.847Z,92.72
2023-03-17T06:42:25.208Z,92.90
2023-03-17T06:43:27.639Z,92.89
2023-03-17T06:44:30.138Z,93.05
2023-03-17T06:45:32.942Z,93.10
2023-03-17T06:46:36.197Z,92.91
2023-03-17T06:47:39.196Z,92.19
2023-03-17T06:48:41.660Z,92.19
2023-03-17T06:49:43.905Z,92.24
2023-03-17T06:50:50.970Z,92.28
2023-03-17T06:51:54.123Z,92.03
2023-03-17T06:52:56.458Z,92.48
2023-03-17T06:53:58.824Z,92.52
2023-03-17T06:55:01.476Z,92.54
2023-03-17T06:56:04.574Z,92.60
2023-03-17T06:57:07.508Z,92.43
2023-03-17T06:58:10.313Z,92.66
2023-03-17T06:59:12.838Z,92.70
2023-03-17T07:00:17.496Z,92.50
2023-03-17T07:01:23.028Z,92.68
2023-03-17T07:02:27.914Z,92.47
2023-03-17T07:03:30.597Z,92.29
2023-03-17T07:04:33.091Z,92.25
2023-03-17T07:05:36.461Z,91.98
2023-03-17T07:06:39.084Z,91.58
2023-03-17T07:07:41.958Z,91.55
2023-03-17T07:08:45.850Z,91.74
2023-03-17T07:09:48.308Z,91.85
2023-03-17T07:10:50.947Z,91.65
2023-03-17T07:11:53.382Z,92.10
2023-03-17T07:12:55.971Z,91.85
2023-03-17T07:13:58.625Z,92.17
2023-03-17T07:15:01.017Z,95.36
2023-03-17T07:16:03.943Z,95.19
2023-03-17T07:17:06.250Z,94.12
2023-03-17T07:18:08.786Z,95.30
2023-03-17T07:19:12.267Z,93.06
2023-03-17T07:20:16.096Z,92.26
2023-03-17T07:21:18.636Z,93.46
2023-03-17T07:22:21.179Z,93.74
2023-03-17T07:23:24.026Z,91.79
2023-03-17T07:24:28.613Z,90.93
2023-03-17T07:25:32.464Z,92.08
2023-03-17T07:26:35.398Z,89.44
2023-03-17T07:27:39.264Z,91.46
2023-03-17T07:28:41.544Z,91.44
2023-03-17T07:29:45.186Z,92.77
2023-03-17T07:30:49.800Z,89.86
2023-03-17T07:31:52.852Z,87.11
2023-03-17T07:32:56.836Z,86.78
2023-03-17T07:33:59.395Z,88.59
2023-03-17T07:35:01.626Z,86.43
2023-03-17T07:36:05.962Z,86.76
2023-03-17T07:37:10.228Z,86.65
2023-03-17T07:38:12.689Z,89.43
2023-03-17T07:39:15.756Z,89.96
2023-03-17T07:40:19.547Z,89.77
2023-03-17T07:41:23.129Z,88.63
2023-03-17T07:42:27.209Z,87.40
2023-03-17T07:43:29.887Z,85.61
2023-03-17T07:44:32.742Z,84.64
2023-03-17T07:45:35.586Z,88.89
2023-03-17T07:46:38.372Z,87.77
2023-03-17T07:47:43.211Z,86.61
2023-03-17T07:48:47.114Z,85.57
2023-03-17T07:49:49.612Z,85.46
2023-03-17T07:50:52.065Z,84.32
2023-03-17T07:51:58.134Z,85.37
2023-03-17T07:53:01.625Z,85.21
2023-03-17T07:54:06.210Z,83.86
2023-03-17T07:55:12.745Z,85.52
2023-03-17T07:56:15.955Z,83.76
2023-03-17T07:57:19.177Z,86.13
2023-03-17T07:58:21.993Z,85.92
2023-03-17T07:59:24.855Z,87.37
2023-03-17T08:00:28.487Z,84.64
2023-03-17T08:01:31.743Z,85.02
2023-03-17T08:02:34.947Z,84.38
2023-03-17T08:03:41.140Z,83.88
2023-03-17T08:04:44.686Z,85.87
2023-03-17T08:05:54.056Z,84.96
2023-03-17T08:06:57.026Z,84.46
2023-03-17T08:07:59.908Z,85.24
2023-03-17T08:09:02.247Z,86.48
2023-03-17T08:10:10.361Z,85.48
2023-03-17T08:11:12.988Z,87.28
2023-03-17T08:12:16.670Z,87.77
2023-03-17T08:13:20.403Z,86.59
2023-03-17T08:14:23.133Z,86.41
2023-03-17T08:15:26.449Z,83.68
2023-03-17T08:16:30.140Z,86.18
2023-03-17T08:17:34.107Z,83.94
2023-03-17T08:18:37.137Z,85.58
2023-03-17T08:19:40.812Z,85.44
2023-03-17T08:20:44.920Z,86.30
2023-03-17T08:21:47.658Z,83.77
2023-03-17T08:22:50.172Z,83.90
2023-03-17T08:23:55.373Z,84.89
2023-03-17T08:24:59.285Z,85.55
2023-03-17T08:26:03.770Z,88.51
2023-03-17T08:27:07.230Z,85.54
2023-03-17T08:28:09.757Z,84.84
2023-03-17T08:29:12.219Z,84.71
2023-03-17T08:30:16.862Z,85.24
2023-03-17T08:31:22.070Z,85.59
2023-03-17T08:32:24.447Z,84.99
2023-03-17T08:33:27.216Z,84.97
2023-03-17T08:34:29.605Z,85.27
2023-03-17T08:35:32.161Z,84.92
2023-03-17T08:36:34.793Z,85.74
2023-03-17T08:37:37.399Z,85.50
2023-03-17T08:38:42.592Z,85.08
2023-03-17T08:39:44.969Z,85.51
2023-03-17T08:40:49.432Z,84.57
2023-03-17T08:41:52.333Z,84.62
2023-03-17T08:42:55.068Z,84.39
2023-03-17T08:43:59.371Z,84.39
2023-03-17T08:45:02.897Z,84.75
2023-03-17T08:46:16.938Z,84.86
2023-03-17T08:47:19.897Z,84.82
2023-03-17T08:48:22.045Z,84.29
2023-03-17T08:49:24.318Z,85.70
2023-03-17T08:50:28.361Z,84.38
2023-03-17T08:51:34.274Z,85.36
2023-03-17T08:52:36.592Z,86.39
2023-03-17T08:53:39.240Z,85.32
2023-03-17T08:54:42.884Z,85.73
2023-03-17T08:55:45.042Z,84.74
2023-03-17T08:56:47.565Z,85.32
2023-03-17T08:57:52.002Z,84.79
2023-03-17T08:58:55.832Z,84.50
2023-03-17T08:59:58.454Z,84.81
2023-03-17T09:01:02.612Z,85.35
2023-03-17T09:02:05.565Z,85.33
2023-03-17T09:03:09.456Z,85.87
2023-03-17T09:04:11.793Z,85.33
2023-03-17T09:05:17.105Z,84.41
2023-03-17T09:06:20.687Z,83.58
2023-03-17T09:07:22.835Z,83.09
2023-03-17T09:08:27.040Z,83.52
2023-03-17T09:09:30.566Z,84.53
2023-03-17T09:10:34.514Z,84.57
2023-03-17T09:11:37.568Z,84.30
2023-03-17T09:12:39.987Z,83.97
2023-03-17T09:13:42.363Z,85.94
2023-03-17T09:14:45.608Z,83.77
2023-03-17T09:15:52.014Z,83.18
2023-03-17T09:16:55.995Z,84.61
2023-03-17T09:17:58.671Z,83.94
2023-03-17T09:19:03.185Z,83.81
2023-03-17T09:20:06.813Z,84.16
2023-03-17T09:21:11.191Z,84.25
2023-03-17T09:22:17.279Z,84.46
2023-03-17T09:23:21.382Z,84.60
2023-03-17T09:24:23.897Z,84.25
2023-03-17T09:25:26.838Z,84.15
2023-03-17T09:26:29.729Z,85.93
2023-03-17T09:27:32.230Z,84.68
2023-03-17T09:28:34.893Z,84.75
2023-03-17T09:29:36.942Z,85.93
2023-03-17T09:30:46.101Z,84.09
2023-03-17T09:31:48.449Z,84.58
2023-03-17T09:32:50.958Z,85.54
2023-03-17T09:33:54.485Z,85.21
2023-03-17T09:34:57.171Z,85.67
2023-03-17T09:35:59.392Z,85.72
2023-03-17T09:37:01.889Z,85.09
2023-03-17T09:38:05.409Z,86.54
2023-03-17T09:39:08.300Z,85.81
2023-03-17T09:40:15.221Z,85.29
2023-03-17T09:41:24.151Z,85.33
2023-03-17T09:42:40.055Z,86.66
2023-03-17T09:43:46.141Z,85.13
2023-03-17T09:45:12.976Z,84.78
2023-03-17T09:46:29.229Z,84.61
2023-03-17T09:47:50.420Z,84.89
2023-03-17T09:49:05.199Z,85.66
2023-03-17T09:50:15.350Z,85.23
2023-03-17T09:51:19.531Z,85.86
2023-03-17T09:52:30.685Z,84.35
2023-03-17T09:53:48.925Z,84.63
2023-03-17T09:54:51.575Z,84.87
2023-03-17T09:55:58.242Z,84.16
2023-03-17T09:57:17.478Z,84.24
2023-03-17T09:58:23.531Z,85.02
2023-03-17T09:59:32.653Z,84.65
2023-03-17T10:00:35.218Z,85.82
2023-03-17T10:01:41.592Z,85.11
2023-03-17T10:02:44.854Z,84.51
2023-03-17T10:03:49.586Z,84.95
2023-03-17T10:04:52.487Z,85.20
2023-03-17T10:05:58.837Z,86.09
2023-03-17T10:07:04.545Z,85.23
2023-03-17T10:08:30.642Z,86.15
2023-03-17T10:09:41.025Z,85.78
2023-03-17T10:11:08.351Z,85.29
2023-03-17T10:13:29.770Z,86.00
2023-03-17T10:14:35.728Z,85.37
2023-03-17T10:15:44.971Z,85.14
2023-03-17T10:16:54.254Z,85.14
2023-03-17T10:17:57.584Z,83.69
2023-03-17T10:19:15.753Z,84.97
2023-03-17T10:20:24.584Z,84.29
2023-03-17T10:21:31.095Z,84.09
2023-03-17T10:22:49.439Z,84.73
2023-03-17T10:23:54.958Z,83.16
2023-03-17T10:25:04.691Z,83.08
2023-03-17T10:26:32.149Z,84.22
2023-03-17T10:27:37.005Z,84.84
2023-03-17T10:28:39.607Z,84.85
2023-03-17T10:29:42.795Z,84.75
2023-03-17T10:30:45.791Z,83.58
2023-03-17T10:31:48.711Z,83.31
2023-03-17T10:32:53.700Z,84.25
2023-03-17T10:34:00.665Z,83.78
2023-03-17T10:35:04.630Z,82.98
2023-03-17T10:36:12.624Z,83.01
2023-03-17T10:37:17.980Z,84.59
2023-03-17T10:38:21.973Z,83.27
2023-03-17T10:39:25.771Z,84.45
2023-03-17T10:40:30.837Z,84.83
2023-03-17T10:41:37.144Z,84.09
2023-03-17T10:42:48.577Z,84.30
2023-03-17T10:43:51.562Z,83.77
2023-03-17T10:44:57.576Z,87.00
2023-03-17T10:46:04.107Z,89.16
2023-03-17T10:47:16.024Z,89.90
2023-03-17T10:48:19.649Z,85.92
2023-03-17T10:49:24.548Z,84.19
2023-03-17T10:50:39.627Z,84.50
2023-03-17T10:51:46.880Z,84.09
2023-03-17T10:52:57.362Z,84.10
2023-03-17T10:54:03.605Z,84.45
2023-03-17T10:55:07.164Z,85.01
2023-03-17T10:56:14.103Z,83.28
2023-03-17T10:57:17.891Z,82.18
2023-03-17T10:58:28.555Z,82.78
2023-03-17T10:59:33.700Z,83.83
2023-03-17T11:00:38.079Z,80.83
2023-03-17T11:01:53.517Z,80.87
2023-03-17T11:02:59.026Z,81.26
2023-03-17T11:04:03.373Z,82.94
2023-03-17T11:05:10.768Z,83.13
2023-03-17T11:06:17.012Z,83.13
2023-03-17T11:07:22.730Z,80.81
2023-03-17T11:08:28.781Z,81.52
2023-03-17T11:09:37.166Z,79.46
2023-03-17T11:10:41.225Z,84.55
2023-03-17T11:11:47.477Z,83.64
2023-03-17T11:12:58.219Z,80.91
2023-03-17T11:14:11.039Z,84.37
2023-03-17T11:15:18.198Z,84.77
2023-03-17T11:16:22.956Z,82.71
2023-03-17T11:18:40.303Z,80.74
2023-03-17T11:19:56.028Z,80.50
2023-03-17T11:21:10.821Z,82.50
2023-03-17T11:22:24.710Z,81.46
2023-03-17T11:23:40.124Z,81.03
2023-03-17T11:25:06.201Z,79.80
2023-03-17T11:26:33.169Z,80.69
2023-03-17T11:27:42.741Z,80.15
2023-03-17T11:28:55.313Z,81.43
2023-03-17T11:30:32.288Z,82.68
2023-03-17T11:31:39.904Z,81.85
2023-03-17T11:32:59.483Z,81.03
2023-03-17T11:34:09.785Z,81.31
2023-03-17T11:35:37.206Z,82.33
2023-03-17T11:36:57.823Z,79.53
2023-03-17T11:38:15.337Z,82.05
2023-03-17T11:39:24.535Z,79.45
2023-03-17T11:40:48.953Z,80.68
2023-03-17T11:42:11.068Z,79.74
2023-03-17T11:43:19.900Z,80.58
2023-03-17T11:44:46.478Z,78.72
2023-03-17T11:46:09.930Z,80.58
2023-03-17T11:47:32.060Z,77.60
2023-03-17T11:49:02.586Z,79.04
2023-03-17T11:50:09.026Z,78.42
2023-03-17T11:51:50.553Z,78.92
2023-03-17T11:53:06.828Z,80.54
2023-03-17T11:54:25.182Z,80.22
2023-03-17T11:55:37.149Z,80.80
2023-03-17T11:56:55.670Z,80.96
2023-03-17T11:58:29.089Z,81.11
2023-03-17T11:59:44.007Z,81.34
2023-03-17T12:00:52.970Z,80.64
2023-03-17T12:02:18.499Z,79.79
2023-03-17T12:03:30.640Z,80.89
2023-03-17T12:04:37.686Z,81.15
2023-03-17T12:05:43.312Z,81.36
2023-03-17T12:06:52.270Z,81.72
2023-03-17T12:08:01.792Z,82.10
2023-03-17T12:09:25.947Z,82.51
2023-03-17T12:10:40.184Z,82.83
2023-03-17T12:11:45.919Z,82.76
2023-03-17T12:12:52.634Z,82.16
2023-03-17T12:14:07.221Z,82.57
2023-03-17T12:15:29.921Z,82.79
2023-03-17T12:16:39.259Z,82.14
2023-03-17T12:17:54.102Z,81.52
2023-03-17T12:19:09.064Z,82.49
2023-03-17T12:21:37.640Z,83.04
2023-03-17T12:22:49.682Z,83.23
2023-03-17T12:24:17.686Z,83.52
2023-03-17T12:25:35.736Z,83.71
2023-03-17T12:26:44.551Z,84.96
2023-03-17T12:28:08.592Z,84.21
2023-03-17T12:29:21.414Z,85.22
2023-03-17T12:30:33.723Z,84.14
2023-03-17T12:31:40.144Z,84.03
2023-03-17T12:32:55.693Z,83.40
2023-03-17T12:34:25.320Z,83.28
2023-03-17T12:35:32.419Z,83.35
2023-03-17T12:36:38.007Z,83.32
2023-03-17T12:37:41.738Z,83.10
2023-03-17T12:39:04.958Z,83.57
2023-03-17T12:40:13.260Z,82.42
2023-03-17T12:41:41.012Z,81.87
2023-03-17T12:42:47.162Z,81.73
2023-03-17T12:44:01.794Z,82.10
2023-03-17T12:45:21.657Z,82.35
2023-03-17T12:46:38.089Z,82.41
2023-03-17T12:47:56.543Z,82.66
2023-03-17T12:49:24.989Z,82.49
2023-03-17T12:50:40.408Z,83.01
2023-03-17T12:51:47.488Z,83.32
2023-03-17T12:52:59.924Z,83.35
2023-03-17T12:54:02.897Z,83.31
2023-03-17T12:55:13.742Z,83.12
2023-03-17T12:56:25.945Z,83.12
2023-03-17T12:57:32.142Z,83.01
2023-03-17T12:58:41.835Z,83.25
2023-03-17T12:59:47.166Z,83.24
2023-03-17T13:01:08.198Z,83.42
2023-03-17T13:02:17.224Z,83.09
2023-03-17T13:03:29.915Z,83.43
2023-03-17T13:05:49.129Z,83.82
2023-03-17T13:07:01.062Z,83.39
2023-03-17T13:08:09.337Z,83.92
2023-03-17T13:09:31.890Z,83.28
2023-03-17T13:10:41.453Z,83.60
2023-03-17T13:11:47.231Z,83.29
2023-03-17T13:12:59.054Z,83.32
2023-03-17T13:14:08.804Z,83.51
2023-03-17T13:15:39.582Z,83.80
2023-03-17T13:16:45.647Z,83.82
2023-03-17T13:17:48.018Z,84.26
2023-03-17T13:18:53.489Z,84.25
2023-03-17T13:20:11.464Z,84.61
2023-03-17T13:21:17.391Z,84.54
2023-03-17T13:22:23.963Z,84.26
2023-03-17T13:23:48.271Z,84.38
2023-03-17T13:24:52.865Z,84.17
2023-03-17T13:25:56.599Z,83.80
2023-03-17T13:27:05.747Z,84.13
2023-03-17T13:28:14.840Z,84.21
2023-03-17T13:29:34.194Z,84.27
2023-03-17T13:30:40.452Z,84.14
2023-03-17T13:31:42.758Z,84.03
2023-03-17T13:32:57.405Z,84.13
2023-03-17T13:34:18.844Z,83.86
2023-03-17T13:35:25.393Z,84.60
2023-03-17T13:36:52.361Z,85.04
2023-03-17T13:38:05.614Z,85.13
2023-03-17T13:39:26.786Z,85.26
2023-03-17T13:42:17.656Z,84.98
2023-03-17T13:43:34.162Z,85.13
2023-03-17T13:45:00.000Z,85.30
2023-03-17T13:46:28.321Z,85.16
2023-03-17T13:47:41.978Z,85.21
2023-03-17T13:48:45.775Z,85.40
2023-03-17T13:49:56.167Z,85.83
2023-03-17T13:51:13.884Z,86.05
2023-03-17T13:52:18.532Z,85.59
2023-03-17T13:53:25.228Z,85.70
2023-03-17T13:54:31.196Z,85.21
2023-03-17T13:55:40.185Z,85.05
2023-03-17T13:56:48.703Z,85.10
2023-03-17T13:57:57.274Z,85.31
2023-03-17T13:59:06.849Z,84.95
2023-03-17T14:00:19.311Z,85.14
2023-03-17T14:01:24.178Z,85.73
2023-03-17T14:02:34.288Z,85.03
2023-03-17T14:03:49.384Z,85.07
2023-03-17T14:04:58.296Z,85.19
2023-03-17T14:06:05.005Z,85.17
2023-03-17T14:07:11.364Z,85.49
2023-03-17T14:08:17.838Z,85.67
2023-03-17T14:09:38.992Z,85.55
2023-03-17T14:10:43.638Z,85.47
2023-03-17T14:11:48.459Z,85.35
2023-03-17T14:14:32.998Z,85.10
2023-03-17T14:15:37.277Z,85.29
2023-03-17T14:16:49.246Z,85.28
2023-03-17T14:17:55.297Z,85.36
2023-03-17T14:19:13.444Z,85.31
2023-03-17T14:20:22.341Z,85.25
2023-03-17T14:21:30.549Z,85.47